Time;durP1;ratioP1;P1;durP2;ratioP2;P2;SDS_P1;SDS_P2;PMS_P1;PMS_P2;Temp;Humidity;BMP_temperature;BMP_pressure;BME280_temperature;BME280_humidity;BME280_pressure;Samples;Min_cycle;Max_cycle;Signal;HPM_P1;HPM_P2
2023/05/23 00:00:40;;;;;;;24.88;21.48;;;;;;;14.61;100.00;101720.50;5010195;28;20413;-66
2023/05/23 00:03:05;;;;;;;26.08;21.38;;;;;;;14.62;100.00;101724.91;5010161;28;20024;-66
2023/05/23 00:05:31;;;;;;;23.67;20.35;;;;;;;14.64;100.00;101725.81;5010596;28;20481;-66
2023/05/23 00:07:56;;;;;;;24.98;21.35;;;;;;;14.61;100.00;101725.72;5009870;28;20045;-66
2023/05/23 00:10:21;;;;;;;23.58;21.13;;;;;;;14.62;100.00;101722.28;5010935;28;20029;-66
2023/05/23 00:12:47;;;;;;;23.63;21.17;;;;;;;14.60;100.00;101718.75;5009291;28;20034;-68
2023/05/23 00:15:12;;;;;;;21.83;19.60;;;;;;;14.60;100.00;101723.06;5010467;28;20030;-66
2023/05/23 00:17:39;;;;;;;25.95;20.75;;;;;;;14.59;100.00;101729.16;5009700;28;20029;-66
2023/05/23 00:20:08;;;;;;;25.67;20.42;;;;;;;14.56;100.00;101721.22;5010410;28;20034;-66
2023/05/23 00:22:34;;;;;;;22.33;20.02;;;;;;;14.58;100.00;101729.97;5009652;28;20547;-66
2023/05/23 00:25:00;;;;;;;23.13;20.65;;;;;;;14.56;100.00;101723.81;5010397;28;20022;-66
2023/05/23 00:27:26;;;;;;;21.60;19.33;;;;;;;14.53;100.00;101722.00;4992040;28;20470;-66
2023/05/23 00:29:51;;;;;;;23.27;19.77;;;;;;;14.53;100.00;101732.44;5009884;28;20022;-67
2023/05/23 00:32:16;;;;;;;21.70;19.40;;;;;;;14.51;100.00;101727.19;5009916;28;20026;-67
2023/05/23 00:34:43;;;;;;;19.98;17.88;;;;;;;14.51;100.00;101735.00;5008976;28;20109;-66
2023/05/23 00:37:08;;;;;;;21.08;18.88;;;;;;;14.50;100.00;101734.94;5009587;28;20045;-66
2023/05/23 00:39:33;;;;;;;22.75;18.42;;;;;;;14.48;100.00;101745.34;5009063;28;20029;-66
2023/05/23 00:42:03;;;;;;;20.02;18.05;;;;;;;14.49;100.00;101741.00;5009456;28;20057;-66
2023/05/23 00:44:29;;;;;;;19.80;17.05;;;;;;;14.48;100.00;101749.69;5008884;28;20037;-67
2023/05/23 00:46:56;;;;;;;19.70;17.55;;;;;;;14.48;100.00;101742.72;5009572;28;20309;-69
2023/05/23 00:49:21;;;;;;;20.17;16.42;;;;;;;14.47;100.00;101748.78;5010219;28;20063;-66
2023/05/23 00:51:48;;;;;;;20.10;17.02;;;;;;;14.49;100.00;101751.44;5009101;28;20026;-66
2023/05/23 00:54:16;;;;;;;18.02;16.17;;;;;;;14.45;100.00;101744.34;5009870;28;20057;-66
2023/05/23 00:56:42;;;;;;;17.80;14.73;;;;;;;14.44;100.00;101742.59;4991912;28;20018;-66
2023/05/23 00:59:08;;;;;;;16.90;15.10;;;;;;;14.45;100.00;101746.97;5009405;28;20109;-67
2023/05/23 01:01:35;;;;;;;15.88;14.15;;;;;;;14.44;100.00;101750.41;5005445;28;20030;-66
2023/05/23 01:04:03;;;;;;;17.58;15.77;;;;;;;14.43;100.00;101746.91;5000623;28;20055;-68
2023/05/23 01:06:29;;;;;;;18.48;14.73;;;;;;;14.43;100.00;101740.84;5008669;28;20018;-67
2023/05/23 01:08:55;;;;;;;16.17;14.57;;;;;;;14.43;100.00;101752.13;5009448;28;20028;-66
2023/05/23 01:11:34;;;;;;;17.13;14.93;;;;;;;14.42;100.00;101745.16;5008749;28;20010;-66
2023/05/23 01:14:09;;;;;;;16.17;14.48;;;;;;;14.41;100.00;101749.47;5008875;28;20022;-67
2023/05/23 01:16:47;;;;;;;16.35;13.98;;;;;;;14.41;100.00;101754.69;5008906;28;20025;-66
2023/05/23 01:19:47;;;;;;;16.27;13.70;;;;;;;14.41;100.00;101759.03;5008685;28;20030;-66
2023/05/23 01:23:01;;;;;;;17.80;13.13;;;;;;;14.40;100.00;101757.25;5008445;28;20060;-66
2023/05/23 01:25:58;;;;;;;17.83;14.68;;;;;;;14.32;100.00;101759.63;5008396;28;20029;-66
2023/05/23 01:28:30;;;;;;;16.05;13.57;;;;;;;14.31;100.00;101757.88;5008524;28;20022;-67
2023/05/23 01:30:58;;;;;;;18.35;13.73;;;;;;;14.32;100.00;101759.63;5008722;28;20029;-66
2023/05/23 01:33:24;;;;;;;18.08;13.43;;;;;;;14.33;100.00;101770.94;5008910;28;20437;-66
2023/05/23 01:35:50;;;;;;;17.02;13.70;;;;;;;14.30;100.00;101766.53;5008996;28;20478;-66
2023/05/23 01:38:16;;;;;;;20.27;14.10;;;;;;;14.28;100.00;101770.81;5008770;28;20042;-66
2023/05/23 01:40:41;;;;;;;16.98;13.50;;;;;;;14.24;100.00;101771.53;5007735;28;20025;-66
2023/05/23 01:43:07;;;;;;;16.42;12.95;;;;;;;14.22;100.00;101774.09;5008553;28;20402;-66
2023/05/23 01:45:32;;;;;;;19.23;13.77;;;;;;;14.22;100.00;101773.22;5007670;28;20091;-67
2023/05/23 01:47:59;;;;;;;20.77;13.32;;;;;;;14.23;100.00;101772.38;5008842;28;20049;-66
2023/05/23 01:50:25;;;;;;;20.95;14.65;;;;;;;14.20;100.00;101774.88;5008307;28;20025;-67
2023/05/23 01:52:52;;;;;;;22.10;14.48;;;;;;;14.19;100.00;101778.34;5008141;28;20557;-66
2023/05/23 01:55:21;;;;;;;20.70;14.70;;;;;;;14.20;100.00;101780.09;5008662;28;20068;-66
2023/05/23 01:57:49;;;;;;;18.40;13.90;;;;;;;14.19;100.00;101783.53;4989972;28;20116;-66
2023/05/23 02:00:15;;;;;;;19.33;13.75;;;;;;;14.15;100.00;101788.66;5008259;28;20030;-67
2023/05/23 02:02:41;;;;;;;22.80;15.25;;;;;;;14.16;100.00;101784.31;5008034;28;20026;-66
2023/05/23 02:05:08;;;;;;;20.15;14.57;;;;;;;14.11;100.00;101789.38;5007847;28;20204;-67
2023/05/23 02:07:33;;;;;;;20.77;13.95;;;;;;;14.08;100.00;101791.91;5008286;28;20033;-66
2023/05/23 02:09:58;;;;;;;22.65;14.63;;;;;;;14.05;100.00;101790.06;5008152;28;20010;-66
2023/05/23 02:12:24;;;;;;;16.83;13.55;;;;;;;14.06;100.00;101798.78;5008002;28;20064;-66
2023/05/23 02:14:51;;;;;;;23.17;14.93;;;;;;;14.06;100.00;101788.34;5007577;28;20457;-66
2023/05/23 02:17:17;;;;;;;21.17;15.40;;;;;;;14.05;100.00;101797.00;5008274;28;20051;-66
2023/05/23 02:19:42;;;;;;;24.40;15.30;;;;;;;14.03;100.00;101806.50;5007629;28;20445;-66
2023/05/23 02:22:07;;;;;;;21.83;14.73;;;;;;;14.00;100.00;101809.00;5008120;28;20053;-65
2023/05/23 02:24:33;;;;;;;21.45;14.70;;;;;;;14.01;100.00;101802.97;5007175;28;20462;-66
2023/05/23 02:26:58;;;;;;;19.55;13.38;;;;;;;14.02;100.00;101807.31;5007981;28;20481;-66
2023/05/23 02:29:23;;;;;;;20.55;14.90;;;;;;;14.03;100.00;101809.13;5007920;28;20018;-67
2023/05/23 02:31:48;;;;;;;19.60;14.98;;;;;;;13.98;100.00;101813.25;5007447;28;20036;-66
2023/05/23 02:34:14;;;;;;;19.38;14.18;;;;;;;13.96;100.00;101810.59;4989531;28;20200;-66
2023/05/23 02:36:39;;;;;;;17.88;14.38;;;;;;;13.97;100.00;101811.50;5007662;28;20057;-66
2023/05/23 02:39:05;;;;;;;17.52;12.43;;;;;;;13.95;100.00;101805.34;5007646;28;20030;-66
2023/05/23 02:41:31;;;;;;;13.52;11.10;;;;;;;13.95;100.00;101810.56;5007597;28;20026;-66
2023/05/23 02:43:57;;;;;;;20.80;12.07;;;;;;;13.93;100.00;101808.81;5006922;28;20389;-66
2023/05/23 02:46:22;;;;;;;15.02;11.43;;;;;;;13.95;100.00;101810.56;5007652;28;20018;-66
2023/05/23 02:48:47;;;;;;;13.50;11.18;;;;;;;13.96;100.00;101809.75;5007276;28;20063;-66
2023/05/23 02:51:13;;;;;;;18.02;11.95;;;;;;;13.95;100.00;101810.56;5007860;28;20022;-66
2023/05/23 02:53:38;;;;;;;18.73;11.05;;;;;;;13.95;100.00;101805.34;5006545;28;20113;-66
2023/05/23 02:56:04;;;;;;;15.95;11.45;;;;;;;13.95;100.00;101815.78;5006940;28;20026;-66
2023/05/23 02:58:30;;;;;;;12.80;10.38;;;;;;;13.97;100.00;101808.91;4989538;28;20405;-66
2023/05/23 03:00:56;;;;;;;19.58;11.60;;;;;;;13.93;100.00;101803.59;5007054;28;20577;-66
2023/05/23 03:03:21;;;;;;;15.95;10.25;;;;;;;13.95;100.00;101801.03;5007511;28;20473;-67
2023/05/23 03:05:47;;;;;;;13.05;9.35;;;;;;;13.95;100.00;101806.25;5006681;28;20519;-67
2023/05/23 03:08:12;;;;;;;13.75;9.57;;;;;;;13.92;100.00;101804.41;5006702;28;20409;-66
2023/05/23 03:10:37;;;;;;;16.25;10.35;;;;;;;13.90;100.00;101811.31;5007467;28;20470;-66
2023/05/23 03:13:03;;;;;;;14.27;10.20;;;;;;;13.91;100.00;101813.06;5006827;28;20032;-66
2023/05/23 03:15:28;;;;;;;11.60;9.02;;;;;;;13.90;100.00;101807.81;4989287;28;20037;-66
2023/05/23 03:17:54;;;;;;;9.55;7.25;;;;;;;13.87;100.00;101811.19;5006743;28;20017;-66
2023/05/23 03:20:19;;;;;;;7.97;6.88;;;;;;;13.86;100.00;101806.81;5006906;28;20448;-66
2023/05/23 03:22:44;;;;;;;8.93;6.72;;;;;;;13.86;100.00;101814.63;5006477;28;20022;-66
2023/05/23 03:25:10;;;;;;;8.77;6.70;;;;;;;13.85;100.00;101814.59;5007172;28;20080;-66
2023/05/23 03:27:35;;;;;;;7.00;5.85;;;;;;;13.84;100.00;101812.78;5007043;28;20018;-65
2023/05/23 03:30:02;;;;;;;6.95;5.80;;;;;;;13.79;100.00;101816.16;5006936;28;20117;-66
2023/05/23 03:32:27;;;;;;;6.95;5.72;;;;;;;13.77;100.00;101816.91;5006629;28;20080;-66
2023/05/23 03:34:53;;;;;;;8.40;5.63;;;;;;;13.78;100.00;101816.09;5006708;28;20026;-66
2023/05/23 03:37:18;;;;;;;6.35;5.50;;;;;;;13.77;100.00;101811.72;5006886;28;20034;-66
2023/05/23 03:39:43;;;;;;;7.82;5.90;;;;;;;13.78;100.00;101818.72;5006369;28;20029;-66
2023/05/23 03:42:09;;;;;;;6.55;5.95;;;;;;;13.76;100.00;101812.56;4987611;28;20022;-66
2023/05/23 03:44:34;;;;;;;6.53;5.78;;;;;;;13.75;100.00;101819.47;5005642;28;20014;-66
2023/05/23 03:46:59;;;;;;;8.13;5.75;;;;;;;13.75;100.00;101822.09;5005153;28;20030;-66
2023/05/23 03:49:25;;;;;;;7.38;5.22;;;;;;;13.75;100.00;101823.78;5002804;28;20067;-67
2023/05/23 03:51:51;;;;;;;6.00;5.05;;;;;;;13.75;100.00;101826.41;5005202;28;20029;-66
2023/05/23 03:54:16;;;;;;;7.07;5.47;;;;;;;13.76;100.00;101820.38;5005299;28;20022;-65
2023/05/23 03:56:42;;;;;;;6.75;5.15;;;;;;;13.76;100.00;101821.25;5003692;28;20034;-67
2023/05/23 03:59:07;;;;;;;7.03;5.68;;;;;;;13.77;100.00;101824.72;5004127;28;20033;-66
2023/05/23 04:01:33;;;;;;;7.35;5.45;;;;;;;13.78;100.00;101834.34;5003923;28;20065;-66
2023/05/23 04:03:59;;;;;;;8.00;5.72;;;;;;;13.77;100.00;101832.53;5004734;28;20358;-66
2023/05/23 04:06:25;;;;;;;7.50;6.00;;;;;;;13.77;100.00;101837.75;5004144;28;20030;-67
2023/05/23 04:08:50;;;;;;;7.13;5.97;;;;;;;13.75;100.00;101836.81;5005844;28;20018;-66
2023/05/23 04:11:16;;;;;;;7.95;5.82;;;;;;;13.76;100.00;101839.47;5004902;28;20061;-66
2023/05/23 04:13:42;;;;;;;6.82;6.15;;;;;;;13.76;100.00;101841.22;5006344;28;20038;-65
2023/05/23 04:16:08;;;;;;;9.02;6.63;;;;;;;13.76;100.00;101833.41;5006301;28;20712;-66
2023/05/23 04:18:33;;;;;;;9.88;6.60;;;;;;;13.73;100.00;101836.75;5006245;28;20026;-66
2023/05/23 04:20:59;;;;;;;8.90;6.93;;;;;;;13.74;100.00;101845.47;5010510;28;20084;-66
2023/05/23 04:23:24;;;;;;;9.05;6.68;;;;;;;13.74;100.00;101843.78;5009854;28;20038;-67
2023/05/23 04:25:50;;;;;;;11.95;7.75;;;;;;;13.73;100.00;101846.28;5010070;28;20087;-65
2023/05/23 04:28:16;;;;;;;10.77;7.22;;;;;;;13.76;100.00;101841.22;5010431;28;20018;-66
2023/05/23 04:30:42;;;;;;;11.98;7.97;;;;;;;13.76;100.00;101846.41;5009789;28;20492;-66
2023/05/23 04:33:08;;;;;;;10.52;6.88;;;;;;;13.75;100.00;101849.84;5010483;28;20065;-66
2023/05/23 04:35:37;;;;;;;9.88;7.15;;;;;;;13.75;100.00;101849.84;5010081;28;20390;-66
2023/05/23 04:38:02;;;;;;;11.50;7.50;;;;;;;13.75;100.00;101852.44;5009412;28;20129;-66
2023/05/23 04:40:28;;;;;;;10.95;7.38;;;;;;;13.74;100.00;101861.09;5009488;28;20532;-66
2023/05/23 04:42:53;;;;;;;14.80;7.70;;;;;;;13.75;100.00;101857.66;5010104;28;20026;-66
2023/05/23 04:45:18;;;;;;;10.50;6.32;;;;;;;13.76;100.00;101862.91;4992129;28;20077;-66
2023/05/23 04:47:44;;;;;;;10.55;8.05;;;;;;;13.75;100.00;101870.69;5009662;28;20057;-66
2023/05/23 04:50:10;;;;;;;12.05;7.90;;;;;;;13.76;100.00;101862.06;5009360;28;20014;-65
2023/05/23 04:52:35;;;;;;;12.45;8.27;;;;;;;13.78;100.00;101870.81;5009675;28;20141;-66
2023/05/23 04:55:01;;;;;;;12.18;8.13;;;;;;;13.78;100.00;101878.63;5009393;28;20025;-66
2023/05/23 04:57:26;;;;;;;10.93;8.48;;;;;;;13.79;100.00;101877.78;5009507;28;20026;-66
2023/05/23 04:59:51;;;;;;;12.65;8.35;;;;;;;13.77;100.00;101880.34;5009280;28;20018;-66
2023/05/23 05:02:17;;;;;;;15.13;8.88;;;;;;;13.77;100.00;101869.91;5009785;28;20036;-66
2023/05/23 05:04:42;;;;;;;13.23;10.13;;;;;;;13.78;100.00;101878.63;5008955;28;20040;-65
2023/05/23 05:07:08;;;;;;;18.90;9.90;;;;;;;13.79;100.00;101883.00;5009455;28;20018;-66
2023/05/23 05:09:33;;;;;;;15.00;10.70;;;;;;;13.76;100.00;101888.09;5009327;28;20036;-65
2023/05/23 05:11:59;;;;;;;21.05;10.68;;;;;;;13.76;100.00;101888.97;5009334;28;20359;-66
2023/05/23 05:14:27;;;;;;;19.50;11.55;;;;;;;13.75;100.00;101888.91;5009332;28;20029;-67
2023/05/23 05:16:56;;;;;;;19.70;12.70;;;;;;;13.74;100.00;101889.75;5008832;28;20025;-66
2023/05/23 05:19:24;;;;;;;23.77;12.00;;;;;;;13.74;100.00;101895.88;5009245;28;20535;-66
2023/05/23 05:21:50;;;;;;;21.08;11.45;;;;;;;13.72;100.00;101892.31;5007980;28;20099;-66
2023/05/23 05:24:15;;;;;;;22.80;13.25;;;;;;;13.71;100.00;101902.69;5008708;28;20021;-66
2023/05/23 05:26:41;;;;;;;24.63;12.45;;;;;;;13.71;100.00;101897.47;5009059;28;20026;-66
2023/05/23 05:29:07;;;;;;;22.05;11.20;;;;;;;13.72;100.00;101901.84;5008779;28;20092;-66
2023/05/23 05:31:32;;;;;;;24.00;11.55;;;;;;;13.68;100.00;101901.72;5008903;28;20073;-66
2023/05/23 05:33:58;;;;;;;19.52;11.93;;;;;;;13.66;100.00;101903.38;5008742;28;20034;-66
2023/05/23 05:36:23;;;;;;;24.02;12.45;;;;;;;13.63;100.00;101907.59;5008660;28;20046;-66
2023/05/23 05:38:49;;;;;;;21.40;11.27;;;;;;;13.60;100.00;101913.56;5005860;28;20033;-67
2023/05/23 05:41:14;;;;;;;21.65;11.50;;;;;;;13.59;100.00;101916.13;5008573;28;20073;-66
2023/05/23 05:43:39;;;;;;;21.30;12.27;;;;;;;13.56;100.00;101916.91;5007936;28;20084;-66
2023/05/23 05:46:05;;;;;;;24.45;13.70;;;;;;;13.54;100.00;101926.38;5008581;28;20377;-66
2023/05/23 05:48:31;;;;;;;21.08;12.27;;;;;;;13.50;100.00;101922.75;5008105;28;20025;-66
2023/05/23 05:50:59;;;;;;;26.13;12.20;;;;;;;13.49;100.00;101925.28;5008947;28;20510;-66
2023/05/23 05:53:25;;;;;;;18.58;11.65;;;;;;;13.52;100.00;101930.59;5007684;28;20302;-65
2023/05/23 05:55:50;;;;;;;20.05;11.25;;;;;;;13.53;100.00;101928.09;5007710;28;20041;-66
2023/05/23 05:58:16;;;;;;;18.42;10.40;;;;;;;13.53;100.00;101935.00;5007922;28;20397;-66
2023/05/23 06:00:42;;;;;;;19.58;9.90;;;;;;;13.51;100.00;101936.66;4999794;28;20030;-66
2023/05/23 06:03:07;;;;;;;19.55;9.40;;;;;;;13.53;100.00;101942.81;5008370;28;20056;-66
2023/05/23 06:05:33;;;;;;;15.13;8.48;;;;;;;13.51;100.00;101939.25;5008550;28;20041;-65
2023/05/23 06:07:58;;;;;;;17.23;8.52;;;;;;;13.51;100.00;101949.69;5007936;28;20380;-65
2023/05/23 06:10:24;;;;;;;17.02;7.95;;;;;;;13.45;100.00;101945.97;5007676;28;20064;-65
2023/05/23 06:12:49;;;;;;;15.85;7.88;;;;;;;13.43;100.00;101950.28;5008127;28;20111;-66
2023/05/23 06:15:15;;;;;;;15.02;7.43;;;;;;;13.41;100.00;101956.22;5007494;28;20026;-65
2023/05/23 06:17:41;;;;;;;13.80;7.05;;;;;;;13.37;100.00;101957.84;5007487;28;20029;-65
2023/05/23 06:20:07;;;;;;;14.55;6.75;;;;;;;13.37;100.00;101959.53;4990463;28;20033;-65
2023/05/23 06:22:32;;;;;;;15.90;6.97;;;;;;;13.34;100.00;101962.94;5006465;28;20493;-65
2023/05/23 06:24:58;;;;;;;10.77;5.90;;;;;;;13.28;100.00;101958.38;4990044;28;20034;-64
2023/05/23 06:27:23;;;;;;;10.02;5.85;;;;;;;13.28;100.00;101968.78;5007945;28;20452;-65
2023/05/23 06:29:48;;;;;;;11.80;5.90;;;;;;;13.24;100.00;101960.81;5006391;28;20421;-65
2023/05/23 06:32:15;;;;;;;11.93;6.35;;;;;;;13.20;100.00;101968.47;5006229;28;20038;-65
2023/05/23 06:34:40;;;;;;;14.60;6.15;;;;;;;13.21;100.00;101971.97;4988619;28;20037;-65
2023/05/23 06:37:05;;;;;;;8.80;5.30;;;;;;;13.24;100.00;101971.22;5005782;28;20045;-65
2023/05/23 06:39:31;;;;;;;11.02;5.78;;;;;;;13.24;100.00;101971.22;5005846;28;20065;-65
2023/05/23 06:41:56;;;;;;;10.88;5.90;;;;;;;13.23;100.00;101972.03;5006240;28;20104;-65
2023/05/23 06:44:21;;;;;;;10.70;5.07;;;;;;;13.21;100.00;101980.69;5006935;28;20573;-65
2023/05/23 06:46:47;;;;;;;11.75;5.47;;;;;;;13.12;100.00;101988.09;5006376;28;20087;-64
2023/05/23 06:49:13;;;;;;;12.02;5.70;;;;;;;13.11;100.00;101986.34;5007500;28;20025;-65
2023/05/23 06:51:39;;;;;;;13.15;5.82;;;;;;;13.08;100.00;101994.91;5007195;28;20022;-65
2023/05/23 06:54:04;;;;;;;10.57;4.97;;;;;;;13.02;100.00;101996.38;5007680;28;20044;-65
2023/05/23 06:56:30;;;;;;;11.02;5.70;;;;;;;13.00;100.00;102003.22;5007081;28;20033;-66
2023/05/23 06:58:55;;;;;;;11.30;5.15;;;;;;;12.97;100.00;102010.06;5007140;28;20116;-64
2023/05/23 07:01:20;;;;;;;11.00;5.25;;;;;;;12.99;100.00;102014.47;5007052;28;20029;-65
2023/05/23 07:03:46;;;;;;;14.82;5.60;;;;;;;13.01;100.00;102015.41;5007498;28;20068;-65
2023/05/23 07:06:11;;;;;;;9.77;5.30;;;;;;;13.02;100.00;102022.41;5007428;28;20458;-64
2023/05/23 07:08:37;;;;;;;12.18;5.10;;;;;;;12.99;100.00;102022.28;5006665;28;20026;-64
2023/05/23 07:11:03;;;;;;;12.60;5.50;;;;;;;12.97;100.00;102015.28;5007312;28;20026;-65
2023/05/23 07:13:28;;;;;;;9.50;4.97;;;;;;;13.01;100.00;102031.00;5007198;28;20030;-65
2023/05/23 07:15:54;;;;;;;12.60;5.75;;;;;;;13.00;100.00;102022.34;5007080;28;20485;-64
2023/05/23 07:18:20;;;;;;;11.25;4.47;;;;;;;13.01;100.00;102020.59;5007142;28;20105;-65
2023/05/23 07:20:45;;;;;;;13.00;5.63;;;;;;;13.05;100.00;102022.50;5006973;28;20170;-65
2023/05/23 07:23:11;;;;;;;8.60;4.97;;;;;;;13.08;100.00;102023.53;5007364;28;20033;-64
2023/05/23 07:25:36;;;;;;;12.07;5.20;;;;;;;13.12;100.00;102024.53;5006947;28;20025;-65
2023/05/23 07:28:01;;;;;;;7.60;4.93;;;;;;;13.19;100.00;102029.16;5007855;28;20105;-65
2023/05/23 07:30:27;;;;;;;8.23;4.70;;;;;;;13.27;100.00;102028.59;5006854;28;20499;-65
2023/05/23 07:32:52;;;;;;;10.30;5.70;;;;;;;13.37;100.00;102027.22;5007059;28;20067;-64
2023/05/23 07:35:22;;;;;;;10.35;4.70;;;;;;;13.49;100.00;102025.09;5007256;28;20026;-64
2023/05/23 07:37:49;;;;;;;9.53;5.47;;;;;;;13.57;100.00;102028.03;5006954;28;20050;-64
2023/05/23 07:40:14;;;;;;;12.68;4.68;;;;;;;13.68;100.00;102036.28;5007162;28;20288;-64
2023/05/23 07:42:40;;;;;;;9.45;4.80;;;;;;;13.74;100.00;102026.09;5006733;28;20415;-65
2023/05/23 07:45:06;;;;;;;9.95;5.30;;;;;;;13.80;100.00;102026.31;5007188;28;20041;-65
2023/05/23 07:47:31;;;;;;;9.43;4.88;;;;;;;13.92;100.00;102035.44;5006641;28;20438;-65
2023/05/23 07:49:56;;;;;;;8.52;5.30;;;;;;;13.95;100.00;102039.84;5006358;28;20022;-64
2023/05/23 07:52:21;;;;;;;10.18;5.40;;;;;;;13.92;100.00;102049.31;5007131;28;20285;-65
2023/05/23 07:54:47;;;;;;;9.85;4.50;;;;;;;13.90;100.00;102037.97;5008237;28;20100;-65
2023/05/23 07:57:14;;;;;;;7.50;4.45;;;;;;;13.84;100.00;102042.94;5010851;28;20440;-65
2023/05/23 07:59:39;;;;;;;8.85;5.13;;;;;;;13.90;100.00;102051.00;5010527;28;20033;-65
2023/05/23 08:02:05;;;;;;;8.35;4.32;;;;;;;14.00;100.00;102051.31;5011063;28;20091;-65
2023/05/23 08:04:32;;;;;;;7.93;4.82;;;;;;;14.09;100.00;102054.28;5009563;28;20486;-65
2023/05/23 08:06:59;;;;;;;6.05;4.78;;;;;;;14.11;99.88;102055.22;5010754;28;20045;-65
2023/05/23 08:09:24;;;;;;;9.00;5.30;;;;;;;14.07;98.46;102055.94;5010241;28;20080;-66
2023/05/23 08:11:50;;;;;;;10.63;4.93;;;;;;;14.07;100.00;102049.88;5010412;28;20034;-66
2023/05/23 08:14:15;;;;;;;8.52;4.57;;;;;;;14.07;100.00;102066.38;5010648;28;20033;-65
2023/05/23 08:16:40;;;;;;;8.13;4.60;;;;;;;14.07;100.00;102060.28;5009625;28;20033;-65
2023/05/23 08:19:06;;;;;;;7.82;4.90;;;;;;;14.03;99.75;102070.56;5010507;28;20182;-65
2023/05/23 08:21:31;;;;;;;8.68;4.60;;;;;;;14.04;100.00;102067.16;5010052;28;20029;-65
2023/05/23 08:23:57;;;;;;;9.52;4.20;;;;;;;14.05;100.00;102068.03;5010394;28;20026;-65
2023/05/23 08:26:22;;;;;;;10.23;4.72;;;;;;;14.07;100.00;102066.38;5010473;28;20034;-65
2023/05/23 08:28:48;;;;;;;9.13;5.18;;;;;;;14.04;100.00;102068.88;5009732;28;20101;-66
2023/05/23 08:31:13;;;;;;;10.27;4.70;;;;;;;14.02;100.00;102073.13;5010409;28;20033;-65
2023/05/23 08:33:39;;;;;;;9.80;4.53;;;;;;;13.99;100.00;102073.03;5009575;28;20077;-65
2023/05/23 08:36:04;;;;;;;9.07;4.45;;;;;;;14.00;100.00;102072.19;5010097;28;20053;-65
2023/05/23 08:38:30;;;;;;;11.32;5.13;;;;;;;13.99;100.00;102071.31;4991918;28;20088;-66
2023/05/23 08:41:00;;;;;;;10.13;4.30;;;;;;;13.95;100.00;102071.13;5010424;28;20022;-65
2023/05/23 08:43:25;;;;;;;9.93;4.18;;;;;;;13.89;100.00;102072.66;5009224;28;20037;-65
2023/05/23 08:45:50;;;;;;;7.90;4.15;;;;;;;13.85;100.00;102073.38;5009790;28;20071;-66
2023/05/23 08:48:18;;;;;;;7.13;4.03;;;;;;;13.86;100.00;102067.34;5009732;28;20370;-65
2023/05/23 08:50:46;;;;;;;7.22;3.80;;;;;;;13.90;100.00;102081.38;5009678;28;20040;-65
2023/05/23 08:53:19;;;;;;;8.48;4.07;;;;;;;13.88;100.00;102078.72;5009380;28;20034;-65
2023/05/23 08:55:45;;;;;;;6.38;4.22;;;;;;;13.91;100.00;102086.66;5009416;28;20754;-65
2023/05/23 08:58:12;;;;;;;8.57;4.30;;;;;;;13.93;100.00;102085.00;5009195;28;20557;-66
2023/05/23 09:00:37;;;;;;;8.10;4.03;;;;;;;13.93;100.00;102084.09;5009589;28;20029;-65
2023/05/23 09:03:03;;;;;;;9.65;4.68;;;;;;;13.92;100.00;102088.41;5009754;28;20074;-65
2023/05/23 09:05:29;;;;;;;6.93;3.92;;;;;;;13.96;100.00;102085.94;5008893;28;20036;-65
2023/05/23 09:07:55;;;;;;;11.05;4.10;;;;;;;14.05;100.00;102088.88;5009683;28;20041;-65
2023/05/23 09:10:21;;;;;;;5.82;3.35;;;;;;;14.18;100.00;102092.81;5009519;28;20029;-65
2023/05/23 09:12:46;;;;;;;8.57;3.58;;;;;;;14.30;100.00;102095.03;5008966;28;20462;-66
2023/05/23 09:15:12;;;;;;;8.30;3.03;;;;;;;14.37;100.00;102096.13;5009669;28;20111;-65
2023/05/23 09:17:37;;;;;;;8.82;3.55;;;;;;;14.48;100.00;102096.53;4991311;28;20021;-65
2023/05/23 09:20:10;;;;;;;10.35;3.63;;;;;;;14.52;100.00;102103.59;5010192;28;20034;-65
2023/05/23 09:22:36;;;;;;;16.83;4.28;;;;;;;14.51;100.00;102094.91;5008180;28;20101;-65
2023/05/23 09:25:01;;;;;;;6.07;2.65;;;;;;;14.43;100.00;102100.69;5009564;28;20041;-65
2023/05/23 09:27:26;;;;;;;7.90;3.30;;;;;;;14.38;100.00;102108.31;5009091;28;20038;-66
2023/05/23 09:29:52;;;;;;;11.25;3.03;;;;;;;14.39;100.00;102099.69;5009369;28;20165;-65
2023/05/23 09:32:18;;;;;;;12.75;3.15;;;;;;;14.39;100.00;102107.50;5009097;28;20482;-66
2023/05/23 09:35:01;;;;;;;6.78;2.50;;;;;;;14.36;100.00;102110.88;5008441;28;20037;-65
2023/05/23 09:37:38;;;;;;;12.27;2.85;;;;;;;14.43;100.00;102116.31;5008725;28;20049;-66
2023/05/23 09:40:11;;;;;;;12.10;2.95;;;;;;;14.46;99.54;102106.00;5009036;28;20034;-66
2023/05/23 09:42:45;;;;;;;9.48;2.85;;;;;;;14.52;98.59;102107.09;4998246;28;20396;-65
2023/05/23 09:45:15;;;;;;;11.95;3.28;;;;;;;14.58;98.63;102108.16;5007887;28;20061;-66
2023/05/23 09:47:52;;;;;;;7.55;2.80;;;;;;;14.57;96.74;102115.06;5008759;28;20029;-65
2023/05/23 09:50:18;;;;;;;6.97;3.13;;;;;;;14.53;95.42;102113.22;5008847;28;20045;-66
2023/05/23 09:52:43;;;;;;;11.52;2.70;;;;;;;14.53;96.98;102113.22;5008696;28;20056;-65
2023/05/23 09:55:09;;;;;;;8.40;2.72;;;;;;;14.55;96.64;102106.34;5007309;28;20385;-65
2023/05/23 09:57:38;;;;;;;10.48;3.00;;;;;;;14.58;97.16;102118.59;5008531;28;20385;-66
2023/05/23 10:00:11;;;;;;;11.02;3.53;;;;;;;14.59;97.18;102116.03;5008114;28;20030;-65
2023/05/23 10:02:54;;;;;;;13.70;3.33;;;;;;;14.63;95.65;102119.63;5008570;28;20026;-66
2023/05/23 10:05:33;;;;;;;13.20;3.72;;;;;;;14.72;92.15;102113.84;5008835;28;20026;-65
2023/05/23 10:08:01;;;;;;;11.93;2.78;;;;;;;14.79;91.10;102109.75;5008152;28;20434;-65
2023/05/23 10:10:30;;;;;;;8.77;2.20;;;;;;;14.87;90.12;102114.44;5008449;28;20168;-66
2023/05/23 10:12:58;;;;;;;9.68;3.28;;;;;;;14.99;87.09;102113.97;4990505;28;20465;-66
2023/05/23 10:15:29;;;;;;;6.00;2.45;;;;;;;15.22;86.55;102107.72;5008488;28;20030;-65
2023/05/23 10:18:06;;;;;;;11.18;2.90;;;;;;;15.69;89.60;102109.19;5008062;28;20488;-65
2023/05/23 10:20:34;;;;;;;9.77;2.80;;;;;;;16.04;84.60;102103.31;5008104;28;20398;-65
2023/05/23 10:23:01;;;;;;;10.00;3.22;;;;;;;16.29;81.21;102115.38;4990430;28;20023;-65
2023/05/23 10:25:27;;;;;;;9.85;3.00;;;;;;;16.41;78.48;102112.19;5008580;28;20033;-66
2023/05/23 10:27:58;;;;;;;8.70;2.90;;;;;;;16.53;75.88;102122.09;4995182;28;20025;-65
2023/05/23 10:30:25;;;;;;;9.13;2.78;;;;;;;16.78;77.92;102106.19;5007786;28;20327;-66
2023/05/23 10:32:52;;;;;;;10.35;2.85;;;;;;;17.01;73.61;102116.38;5008465;28;20037;-65
2023/05/23 10:35:41;;;;;;;8.65;2.55;;;;;;;17.23;74.81;102112.59;5007652;28;20071;-65
2023/05/23 10:38:25;;;;;;;9.10;2.85;;;;;;;17.34;71.07;102110.22;5007724;28;20053;-66
2023/05/23 10:41:04;;;;;;;9.02;2.30;;;;;;;17.36;68.35;102110.28;5008259;28;20447;-65
2023/05/23 10:43:43;;;;;;;9.43;3.00;;;;;;;17.28;68.51;102107.47;5006684;28;20065;-67
2023/05/23 10:46:12;;;;;;;8.55;2.97;;;;;;;17.47;71.28;102119.25;5007828;28;20635;-65
2023/05/23 10:48:42;;;;;;;11.77;2.70;;;;;;;17.45;69.72;102113.09;5007681;28;20031;-65
2023/05/23 10:51:13;;;;;;;8.50;3.15;;;;;;;17.55;70.61;102110.69;5008035;28;20034;-65
2023/05/23 10:53:43;;;;;;;9.27;2.83;;;;;;;17.77;70.13;102097.22;5007337;28;20220;-65
2023/05/23 10:56:17;;;;;;;13.98;3.13;;;;;;;18.05;69.08;102111.78;5007265;28;20366;-65
2023/05/23 10:58:42;;;;;;;7.50;2.67;;;;;;;18.21;67.76;102115.63;5007465;28;20018;-65
2023/05/23 11:01:12;;;;;;;8.77;2.55;;;;;;;18.04;65.26;102110.00;5007758;28;20470;-66
2023/05/23 11:03:46;;;;;;;8.77;2.95;;;;;;;18.07;66.70;102112.69;5007308;28;20045;-65
2023/05/23 11:06:40;;;;;;;7.38;3.10;;;;;;;18.03;64.05;102110.84;5007027;28;20022;-66
2023/05/23 11:09:12;;;;;;;9.52;3.53;;;;;;;18.14;65.95;102098.88;5007783;28;20453;-65